createdAt,value
2024-02-01T00:00:32.188Z,604.00
2024-02-01T00:01:32.180Z,604.00
2024-02-01T00:02:32.347Z,604.00
2024-02-01T00:03:32.297Z,605.00
2024-02-01T00:04:32.375Z,606.00
2024-02-01T00:05:32.527Z,602.00
2024-02-01T00:06:32.662Z,607.00
2024-02-01T00:07:32.532Z,605.00
2024-02-01T00:08:32.618Z,605.00
2024-02-01T00:09:32.660Z,607.00
2024-02-01T00:10:32.741Z,603.00
2024-02-01T00:11:32.793Z,603.00
2024-02-01T00:12:32.838Z,604.00
2024-02-01T00:13:32.913Z,604.00
2024-02-01T00:14:33.101Z,602.00
2024-02-01T00:15:33.034Z,600.00
2024-02-01T00:16:33.177Z,607.00
2024-02-01T00:17:33.272Z,600.00
2024-02-01T00:18:33.300Z,604.00
2024-02-01T00:19:33.476Z,604.00
2024-02-01T00:20:33.410Z,603.00
2024-02-01T00:21:33.444Z,605.00
2024-02-01T00:23:33.589Z,605.00
2024-02-01T00:24:33.638Z,603.00
2024-02-01T00:25:33.738Z,603.00
2024-02-01T00:26:33.836Z,603.00
2024-02-01T00:27:33.853Z,604.00
2024-02-01T00:28:33.935Z,604.00
2024-02-01T00:29:34.050Z,603.00
2024-02-01T00:30:34.054Z,606.00
2024-02-01T00:31:34.197Z,604.00
2024-02-01T00:32:34.344Z,604.00
2024-02-01T00:33:34.454Z,608.00
2024-02-01T00:34:34.384Z,605.00
2024-02-01T00:35:34.447Z,604.00
2024-02-01T00:36:34.471Z,606.00
2024-02-01T00:37:34.543Z,606.00
2024-02-01T00:38:34.627Z,604.00
2024-02-01T00:39:34.693Z,602.00
2024-02-01T00:40:34.763Z,607.00
2024-02-01T00:41:35.047Z,606.00
2024-02-01T00:42:34.940Z,604.00
2024-02-01T00:43:34.983Z,604.00
2024-02-01T00:44:35.110Z,605.00
2024-02-01T00:45:35.120Z,603.00
2024-02-01T00:46:35.181Z,606.00
2024-02-01T00:47:35.522Z,605.00
2024-02-01T00:48:35.468Z,605.00
2024-02-01T00:49:35.583Z,607.00
2024-02-01T00:50:35.511Z,601.00
2024-02-01T00:51:35.540Z,602.00
2024-02-01T00:52:35.621Z,601.00
2024-02-01T00:53:35.716Z,604.00
2024-02-01T00:54:35.753Z,603.00
2024-02-01T00:55:35.831Z,605.00
2024-02-01T00:56:35.914Z,603.00
2024-02-01T00:57:35.970Z,608.00
2024-02-01T00:58:36.022Z,605.00
2024-02-01T00:59:36.201Z,607.00
2024-02-01T01:00:36.251Z,603.00
2024-02-01T01:01:36.274Z,602.00
2024-02-01T01:02:36.315Z,604.00
2024-02-01T01:03:36.364Z,605.00
2024-02-01T01:04:36.522Z,604.00
2024-02-01T01:05:36.552Z,604.00
2024-02-01T01:06:36.568Z,603.00
2024-02-01T01:07:36.651Z,603.00
2024-02-01T01:08:36.746Z,602.00
2024-02-01T01:09:36.770Z,604.00
2024-02-01T01:10:36.853Z,607.00
2024-02-01T01:11:36.944Z,604.00
2024-02-01T01:12:36.996Z,602.00
2024-02-01T01:13:37.035Z,608.00
2024-02-01T01:14:37.143Z,603.00
2024-02-01T01:15:37.176Z,606.00
2024-02-01T01:16:37.259Z,604.00
2024-02-01T01:17:37.421Z,605.00
2024-02-01T01:18:37.505Z,605.00
2024-02-01T01:19:37.484Z,604.00
2024-02-01T01:20:37.576Z,605.00
2024-02-01T01:21:37.612Z,605.00
2024-02-01T01:22:37.693Z,604.00
2024-02-01T01:23:37.822Z,602.00
2024-02-01T01:24:37.827Z,604.00
2024-02-01T01:25:37.829Z,603.00
2024-02-01T01:26:37.877Z,604.00
2024-02-01T01:27:37.914Z,600.00
2024-02-01T01:28:37.981Z,605.00
2024-02-01T01:29:38.023Z,600.00
2024-02-01T01:30:38.074Z,601.00
2024-02-01T01:31:38.107Z,607.00
2024-02-01T01:32:38.222Z,605.00
2024-02-01T01:33:38.484Z,605.00
2024-02-01T01:34:38.258Z,605.00
2024-02-01T01:35:38.320Z,605.00
2024-02-01T01:36:38.327Z,605.00
2024-02-01T01:37:38.435Z,604.00
2024-02-01T01:38:38.422Z,604.00
2024-02-01T01:39:38.419Z,606.00
2024-02-01T01:40:38.465Z,605.00
2024-02-01T01:41:38.507Z,605.00
2024-02-01T01:42:38.530Z,603.00
2024-02-01T01:43:38.582Z,602.00
2024-02-01T01:44:38.641Z,601.00
2024-02-01T01:45:38.643Z,603.00
2024-02-01T01:46:38.750Z,605.00
2024-02-01T01:47:38.782Z,605.00
2024-02-01T01:48:38.929Z,607.00
2024-02-01T01:49:38.853Z,602.00
2024-02-01T01:50:38.894Z,604.00
2024-02-01T01:51:38.892Z,601.00
2024-02-01T01:52:38.936Z,604.00
2024-02-01T01:53:39.041Z,608.00
2024-02-01T01:54:39.040Z,604.00
2024-02-01T01:55:39.084Z,601.00
2024-02-01T01:56:39.283Z,605.00
2024-02-01T01:57:39.213Z,605.00
2024-02-01T01:58:39.255Z,600.00
2024-02-01T01:59:39.313Z,605.00
2024-02-01T02:00:39.325Z,602.00
2024-02-01T02:01:39.344Z,607.00
2024-02-01T02:02:39.426Z,605.00
2024-02-01T02:03:39.594Z,606.00
2024-02-01T02:04:39.490Z,603.00
2024-02-01T02:05:39.604Z,605.00
2024-02-01T02:06:39.669Z,604.00
2024-02-01T02:07:39.588Z,606.00
2024-02-01T02:08:39.685Z,605.00
2024-02-01T02:09:39.658Z,604.00
2024-02-01T02:10:39.737Z,604.00
2024-02-01T02:11:39.779Z,606.00
2024-02-01T02:12:39.819Z,603.00
2024-02-01T02:13:39.869Z,606.00
2024-02-01T02:14:39.923Z,602.00
2024-02-01T02:15:39.945Z,604.00
2024-02-01T02:16:40.139Z,606.00
2024-02-01T02:17:40.250Z,605.00
2024-02-01T02:18:40.165Z,606.00
2024-02-01T02:19:40.207Z,605.00
2024-02-01T02:20:40.210Z,601.00
2024-02-01T02:21:40.218Z,605.00
2024-02-01T02:22:40.248Z,604.00
2024-02-01T02:23:40.348Z,607.00
2024-02-01T02:24:40.319Z,603.00
2024-02-01T02:25:40.364Z,608.00
2024-02-01T02:26:40.448Z,605.00
2024-02-01T02:27:40.444Z,604.00
2024-02-01T02:28:40.506Z,605.00
2024-02-01T02:29:40.599Z,606.00
2024-02-01T02:30:40.665Z,605.00
2024-02-01T02:31:40.707Z,605.00
2024-02-01T02:32:40.987Z,605.00
2024-02-01T02:33:40.999Z,606.00
2024-02-01T02:34:40.939Z,605.00
2024-02-01T02:35:41.022Z,604.00
2024-02-01T02:36:41.062Z,603.00
2024-02-01T02:37:41.112Z,604.00
2024-02-01T02:38:41.196Z,604.00
2024-02-01T02:39:41.228Z,602.00
2024-02-01T02:40:41.293Z,605.00
2024-02-01T02:41:41.405Z,603.00
2024-02-01T02:42:41.394Z,607.00
2024-02-01T02:43:41.422Z,603.00
2024-02-01T02:44:41.513Z,607.00
2024-02-01T02:45:41.524Z,605.00
2024-02-01T02:46:41.604Z,604.00
2024-02-01T02:47:41.682Z,604.00
2024-02-01T02:48:41.829Z,604.00
2024-02-01T02:49:41.831Z,605.00
2024-02-01T02:50:41.840Z,608.00
2024-02-01T02:51:41.890Z,607.00
2024-02-01T02:52:41.871Z,602.00
2024-02-01T02:53:41.927Z,607.00
2024-02-01T02:54:41.947Z,602.00
2024-02-01T02:55:41.993Z,600.00
2024-02-01T02:56:42.113Z,605.00
2024-02-01T02:57:42.072Z,606.00
2024-02-01T02:58:42.111Z,606.00
2024-02-01T02:59:42.154Z,606.00
2024-02-01T03:00:42.197Z,605.00
2024-02-01T03:01:42.203Z,608.00
2024-02-01T03:02:42.446Z,610.00
2024-02-01T03:03:42.516Z,611.00
2024-02-01T03:04:42.320Z,608.00
2024-02-01T03:05:42.409Z,607.00
2024-02-01T03:06:42.417Z,607.00
2024-02-01T03:07:42.378Z,605.00
2024-02-01T03:08:42.533Z,609.00
2024-02-01T03:09:42.430Z,609.00
2024-02-01T03:10:42.489Z,608.00
2024-02-01T03:11:42.517Z,612.00
2024-02-01T03:12:42.494Z,613.00
2024-02-01T03:13:42.523Z,608.00
2024-02-01T03:14:42.566Z,609.00
2024-02-01T03:15:42.542Z,613.00
2024-02-01T03:16:42.560Z,608.00
2024-02-01T03:17:43.046Z,612.00
2024-02-01T03:18:42.765Z,607.00
2024-02-01T03:19:42.701Z,612.00
2024-02-01T03:20:42.711Z,613.00
2024-02-01T03:21:42.666Z,612.00
2024-02-01T03:22:42.666Z,609.00
2024-02-01T03:23:42.750Z,613.00
2024-02-01T03:24:42.685Z,611.00
2024-02-01T03:25:42.691Z,611.00
2024-02-01T03:26:42.736Z,613.00
2024-02-01T03:27:42.705Z,608.00
2024-02-01T03:28:42.754Z,611.00
2024-02-01T03:29:42.812Z,607.00
2024-02-01T03:30:42.721Z,612.00
2024-02-01T03:31:42.786Z,612.00
2024-02-01T03:32:42.788Z,612.00
2024-02-01T03:33:42.851Z,610.00
2024-02-01T03:34:42.749Z,607.00
2024-02-01T03:35:42.839Z,610.00
2024-02-01T03:36:42.774Z,612.00
2024-02-01T03:37:42.762Z,610.00
2024-02-01T03:38:42.788Z,614.00
2024-02-01T03:39:42.813Z,612.00
2024-02-01T03:40:42.814Z,611.00
2024-02-01T03:41:42.906Z,608.00
2024-02-01T03:42:42.866Z,605.00
2024-02-01T03:43:42.897Z,611.00
2024-02-01T03:44:42.974Z,606.00
2024-02-01T03:45:45.122Z,616.00
2024-02-01T03:46:42.988Z,611.00
2024-02-01T03:47:43.096Z,610.00
2024-02-01T03:48:43.161Z,613.00
2024-02-01T03:49:43.203Z,609.00
2024-02-01T03:50:43.197Z,610.00
2024-02-01T03:51:43.190Z,609.00
2024-02-01T03:52:43.237Z,606.00
2024-02-01T03:53:43.392Z,611.00
2024-02-01T03:54:43.329Z,610.00
2024-02-01T03:55:43.395Z,608.00
2024-02-01T03:56:43.561Z,611.00
2024-02-01T03:57:45.262Z,608.00
2024-02-01T03:58:43.545Z,610.00
2024-02-01T03:59:43.621Z,607.00
2024-02-01T04:00:43.681Z,610.00
2024-02-01T04:01:43.671Z,610.00
2024-02-01T04:02:43.723Z,614.00
2024-02-01T04:03:43.755Z,608.00
2024-02-01T04:04:43.762Z,608.00
2024-02-01T04:05:43.859Z,609.00
2024-02-01T04:06:43.879Z,613.00
2024-02-01T04:07:43.840Z,613.00
2024-02-01T04:08:43.892Z,613.00
2024-02-01T04:09:44.867Z,607.00
2024-02-01T04:10:43.938Z,615.00
2024-02-01T04:11:44.006Z,608.00
2024-02-01T04:12:44.053Z,613.00
2024-02-01T04:13:44.099Z,611.00
2024-02-01T04:14:44.238Z,606.00
2024-02-01T04:15:44.224Z,605.00
2024-02-01T04:16:44.295Z,607.00
2024-02-01T04:17:44.372Z,610.00
2024-02-01T04:18:44.553Z,611.00
2024-02-01T04:19:44.483Z,609.00
2024-02-01T04:20:44.634Z,610.00
2024-02-01T04:21:44.597Z,606.00
2024-02-01T04:22:44.655Z,609.00
2024-02-01T04:23:44.731Z,607.00
2024-02-01T04:24:44.773Z,604.00
2024-02-01T04:25:44.911Z,611.00
2024-02-01T04:26:44.885Z,608.00
2024-02-01T04:27:45.014Z,610.00
2024-02-01T04:28:44.993Z,606.00
2024-02-01T04:29:45.078Z,610.00
2024-02-01T04:30:45.123Z,607.00
2024-02-01T04:31:45.168Z,612.00
2024-02-01T04:32:45.291Z,602.00
2024-02-01T04:33:45.411Z,606.00
2024-02-01T04:34:45.402Z,608.00
2024-02-01T04:35:45.502Z,610.00
2024-02-01T04:36:45.542Z,603.00
2024-02-01T04:37:45.585Z,608.00
2024-02-01T04:38:45.678Z,603.00
2024-02-01T04:39:45.736Z,604.00
2024-02-01T04:40:52.985Z,600.00
2024-02-01T04:41:53.028Z,600.00
2024-02-01T04:42:53.209Z,600.00
2024-02-01T04:43:53.003Z,600.00
2024-02-01T04:44:53.041Z,600.00
2024-02-01T04:45:53.080Z,603.00
2024-02-01T04:46:53.090Z,600.00
2024-02-01T04:47:53.279Z,603.00
2024-02-01T04:48:53.357Z,600.00
2024-02-01T04:49:53.314Z,604.00
2024-02-01T04:50:53.373Z,603.00
2024-02-01T04:51:53.379Z,601.00
2024-02-01T04:52:53.412Z,604.00
2024-02-01T04:53:53.539Z,602.00
2024-02-01T04:54:53.514Z,602.00
2024-02-01T04:55:53.629Z,604.00
2024-02-01T04:56:53.638Z,603.00
2024-02-01T04:57:53.677Z,603.00
2024-02-01T04:58:53.744Z,605.00
2024-02-01T04:59:53.834Z,601.00
2024-02-01T05:00:53.897Z,605.00
2024-02-01T05:01:54.022Z,601.00
2024-02-01T05:02:54.078Z,607.00
2024-02-01T05:03:54.125Z,606.00
2024-02-01T05:04:54.107Z,602.00
2024-02-01T05:05:54.339Z,604.00
2024-02-01T05:06:54.433Z,606.00
2024-02-01T05:07:54.293Z,606.00
2024-02-01T05:08:54.392Z,603.00
2024-02-01T05:09:54.374Z,600.00
2024-02-01T05:10:54.412Z,602.00
2024-02-01T05:11:54.531Z,603.00
2024-02-01T05:12:54.516Z,605.00
2024-02-01T05:13:54.569Z,604.00
2024-02-01T05:14:54.645Z,606.00
2024-02-01T05:15:54.615Z,604.00
2024-02-01T05:16:54.627Z,605.00
2024-02-01T05:17:54.730Z,609.00
2024-02-01T05:18:54.783Z,603.00
2024-02-01T05:19:54.725Z,605.00
2024-02-01T05:20:54.753Z,603.00
2024-02-01T05:21:54.725Z,603.00
2024-02-01T05:22:54.744Z,603.00
2024-02-01T05:23:54.757Z,604.00
2024-02-01T05:24:54.775Z,600.00
2024-02-01T05:25:54.832Z,604.00
2024-02-01T05:26:54.883Z,603.00
2024-02-01T05:27:54.911Z,606.00
2024-02-01T05:28:54.978Z,606.00
2024-02-01T05:29:55.047Z,606.00
2024-02-01T05:30:55.099Z,600.00
2024-02-01T05:31:55.162Z,602.00
2024-02-01T05:32:56.506Z,603.00
2024-02-01T05:33:55.411Z,608.00
2024-02-01T05:34:55.332Z,607.00
2024-02-01T05:35:55.492Z,604.00
2024-02-01T05:36:55.471Z,606.00
2024-02-01T05:37:55.565Z,604.00
2024-02-01T05:38:55.632Z,603.00
2024-02-01T05:39:55.680Z,608.00
2024-02-01T05:40:55.816Z,603.00
2024-02-01T05:41:55.872Z,605.00
2024-02-01T05:42:55.867Z,605.00
2024-02-01T05:43:55.934Z,607.00
2024-02-01T05:44:56.020Z,603.00
2024-02-01T05:45:56.079Z,602.00
2024-02-01T05:46:56.162Z,603.00
2024-02-01T05:47:56.292Z,600.00
2024-02-01T05:49:56.612Z,602.00
2024-02-01T05:50:56.421Z,601.00
2024-02-01T05:51:56.457Z,607.00
2024-02-01T05:52:56.476Z,606.00
2024-02-01T05:53:56.609Z,600.00
2024-02-01T05:54:56.567Z,601.00
2024-02-01T05:55:56.588Z,606.00
2024-02-01T05:56:56.631Z,606.00
2024-02-01T05:57:56.648Z,608.00
2024-02-01T05:58:56.713Z,606.00
2024-02-01T05:59:56.770Z,608.00
2024-02-01T06:00:56.843Z,605.00
2024-02-01T06:01:56.809Z,606.00
2024-02-01T06:02:56.839Z,602.00
2024-02-01T06:03:56.866Z,605.00
2024-02-01T06:04:57.010Z,602.00
2024-02-01T06:05:57.013Z,602.00
2024-02-01T06:06:57.033Z,604.00
2024-02-01T06:07:57.048Z,608.00
2024-02-01T06:08:57.122Z,604.00
2024-02-01T06:09:57.126Z,603.00
2024-02-01T06:10:57.169Z,601.00
2024-02-01T06:11:57.183Z,604.00
2024-02-01T06:12:57.214Z,602.00
2024-02-01T06:13:57.229Z,604.00
2024-02-01T06:14:57.333Z,605.00
2024-02-01T06:15:57.301Z,605.00
2024-02-01T06:16:57.324Z,601.00
2024-02-01T06:17:57.403Z,606.00
2024-02-01T06:18:57.475Z,603.00
2024-02-01T06:19:57.501Z,601.00
2024-02-01T06:20:57.503Z,603.00
2024-02-01T06:21:57.522Z,604.00
2024-02-01T06:22:57.604Z,603.00
2024-02-01T06:23:57.730Z,602.00
2024-02-01T06:24:57.756Z,606.00
2024-02-01T06:25:57.800Z,605.00
2024-02-01T06:26:57.878Z,605.00
2024-02-01T06:27:59.003Z,604.00
2024-02-01T06:28:58.006Z,606.00
2024-02-01T06:29:58.096Z,607.00
2024-02-01T06:30:58.157Z,604.00
2024-02-01T06:31:58.198Z,603.00
2024-02-01T06:32:58.302Z,602.00
2024-02-01T06:33:58.344Z,609.00
2024-02-01T06:34:58.416Z,611.00
2024-02-01T06:35:58.414Z,611.00
2024-02-01T06:36:58.458Z,610.00
2024-02-01T06:37:58.475Z,612.00
2024-02-01T06:38:58.554Z,612.00
2024-02-01T06:39:58.699Z,609.00
2024-02-01T06:40:58.703Z,610.00
2024-02-01T06:41:58.780Z,611.00
2024-02-01T06:42:58.706Z,612.00
2024-02-01T06:43:58.748Z,615.00
2024-02-01T06:44:58.896Z,620.00
2024-02-01T06:45:58.824Z,609.00
2024-02-01T06:46:58.882Z,602.00
2024-02-01T06:47:58.967Z,608.00
2024-02-01T06:48:58.909Z,616.00
2024-02-01T06:49:58.889Z,623.00
2024-02-01T06:50:59.426Z,633.00
2024-02-01T06:51:58.996Z,639.00
2024-02-01T06:52:59.241Z,645.00
2024-02-01T06:54:00.363Z,654.00
2024-02-01T06:54:59.207Z,657.00
2024-02-01T06:55:59.392Z,659.00
2024-02-01T06:56:59.172Z,662.00
2024-02-01T06:57:59.128Z,664.00
2024-02-01T06:58:59.189Z,680.00
2024-02-01T06:59:59.141Z,682.00
2024-02-01T07:00:59.164Z,691.00
2024-02-01T07:01:59.124Z,697.00
2024-02-01T07:02:59.241Z,700.00
2024-02-01T07:03:59.331Z,704.00
2024-02-01T07:04:59.178Z,709.00
2024-02-01T07:05:59.290Z,710.00
2024-02-01T07:06:59.197Z,718.00
2024-02-01T07:07:59.188Z,718.00
2024-02-01T07:08:59.199Z,723.00
2024-02-01T07:10:00.208Z,729.00
2024-02-01T07:10:59.162Z,738.00
2024-02-01T07:11:59.190Z,733.00
2024-02-01T07:12:59.166Z,729.00
2024-02-01T07:13:59.161Z,734.00
2024-02-01T07:14:59.231Z,739.00
2024-02-01T07:15:59.161Z,737.00
2024-02-01T07:16:59.177Z,739.00
2024-02-01T07:17:59.321Z,738.00
2024-02-01T07:18:59.235Z,739.00
2024-02-01T07:19:59.258Z,738.00
2024-02-01T07:21:00.661Z,745.00
2024-02-01T07:21:59.176Z,736.00
2024-02-01T07:22:59.185Z,739.00
2024-02-01T07:23:59.214Z,739.00
2024-02-01T07:24:59.189Z,738.00
2024-02-01T07:25:59.176Z,742.00
2024-02-01T07:26:59.217Z,744.00
2024-02-01T07:28:00.166Z,746.00
2024-02-01T07:28:59.200Z,747.00
2024-02-01T07:29:59.232Z,742.00
2024-02-01T07:30:59.263Z,747.00
2024-02-01T07:31:59.220Z,749.00
2024-02-01T07:32:59.253Z,742.00
2024-02-01T07:33:59.395Z,743.00
2024-02-01T07:34:59.228Z,743.00
2024-02-01T07:35:59.244Z,743.00
2024-02-01T07:36:59.261Z,745.00
2024-02-01T07:37:59.228Z,740.00
2024-02-01T07:38:59.261Z,743.00
2024-02-01T07:39:59.249Z,745.00
2024-02-01T07:40:59.277Z,743.00
2024-02-01T07:41:59.308Z,741.00
2024-02-01T07:42:59.318Z,751.00
2024-02-01T07:43:59.363Z,741.00
2024-02-01T07:44:59.394Z,737.00
2024-02-01T07:45:59.329Z,738.00
2024-02-01T07:46:59.353Z,740.00
2024-02-01T07:47:59.674Z,740.00
2024-02-01T07:48:59.551Z,740.00
2024-02-01T07:49:59.545Z,738.00
2024-02-01T07:50:59.487Z,742.00
2024-02-01T07:51:59.412Z,742.00
2024-02-01T07:52:59.432Z,749.00
2024-02-01T07:53:59.517Z,782.00
2024-02-01T07:54:59.493Z,792.00
2024-02-01T07:55:59.544Z,767.00
2024-02-01T07:56:59.580Z,749.00
2024-02-01T07:57:59.597Z,742.00
2024-02-01T07:58:59.608Z,734.00
2024-02-01T07:59:59.665Z,735.00
2024-02-01T08:00:59.654Z,744.00
2024-02-01T08:01:59.612Z,737.00
2024-02-01T08:02:59.716Z,747.00
2024-02-01T08:03:59.772Z,756.00
2024-02-01T08:04:59.799Z,773.00
2024-02-01T08:05:59.913Z,780.00
2024-02-01T08:07:00.051Z,794.00
2024-02-01T08:07:59.944Z,810.00
2024-02-01T08:09:00.090Z,824.00
2024-02-01T08:10:01.203Z,839.00
2024-02-01T08:11:00.101Z,853.00
2024-02-01T08:12:00.177Z,859.00
2024-02-01T08:13:00.167Z,873.00
2024-02-01T08:14:00.189Z,888.00
2024-02-01T08:15:00.342Z,898.00
2024-02-01T08:16:00.283Z,897.00
2024-02-01T08:17:00.300Z,908.00
2024-02-01T08:18:00.496Z,919.00
2024-02-01T08:19:00.480Z,918.00
2024-02-01T08:20:00.466Z,932.00
2024-02-01T08:21:00.764Z,949.00
2024-02-01T08:22:00.567Z,944.00
2024-02-01T08:23:00.670Z,928.00
2024-02-01T08:24:00.697Z,920.00
2024-02-01T08:25:01.881Z,895.00
2024-02-01T08:26:00.724Z,884.00
2024-02-01T08:27:00.775Z,889.00
2024-02-01T08:28:00.784Z,896.00
2024-02-01T08:29:00.761Z,898.00
2024-02-01T08:30:00.784Z,908.00
2024-02-01T08:31:00.730Z,934.00
2024-02-01T08:32:00.729Z,934.00
2024-02-01T08:33:00.850Z,910.00
2024-02-01T08:34:00.930Z,919.00
2024-02-01T08:35:00.823Z,914.00
2024-02-01T08:36:02.396Z,906.00
2024-02-01T08:37:00.745Z,906.00
2024-02-01T08:38:00.741Z,914.00
2024-02-01T08:39:00.777Z,928.00
2024-02-01T08:40:00.749Z,921.00
2024-02-01T08:41:00.752Z,916.00
2024-02-01T08:42:00.771Z,898.00
2024-02-01T08:43:00.787Z,891.00
2024-02-01T08:44:00.752Z,879.00
2024-02-01T08:45:00.781Z,873.00
2024-02-01T08:46:00.767Z,882.00
2024-02-01T08:47:00.776Z,878.00
2024-02-01T08:48:00.855Z,906.00
2024-02-01T08:49:00.935Z,933.00
2024-02-01T08:50:00.803Z,908.00
2024-02-01T08:51:00.823Z,882.00
2024-02-01T08:52:00.759Z,848.00
2024-02-01T08:53:00.795Z,839.00
2024-02-01T08:54:00.827Z,819.00
2024-02-01T08:55:00.918Z,831.00
2024-02-01T08:56:00.758Z,838.00
2024-02-01T08:57:00.834Z,849.00
2024-02-01T08:58:00.767Z,853.00
2024-02-01T08:59:00.773Z,858.00
2024-02-01T09:00:00.795Z,848.00
2024-02-01T09:01:00.850Z,855.00
2024-02-01T09:02:00.753Z,860.00
2024-02-01T09:03:00.859Z,860.00
2024-02-01T09:04:00.838Z,862.00
2024-02-01T09:05:00.883Z,870.00
2024-02-01T09:06:00.886Z,872.00
2024-02-01T09:07:00.889Z,879.00
2024-02-01T09:08:00.808Z,879.00
2024-02-01T09:09:00.913Z,883.00
2024-02-01T09:10:02.732Z,886.00
2024-02-01T09:11:01.786Z,886.00
2024-02-01T09:12:01.127Z,888.00
2024-02-01T09:13:08.695Z,600.00
2024-02-01T09:14:08.663Z,600.00
2024-02-01T09:15:08.724Z,600.00
2024-02-01T09:16:08.671Z,600.00
2024-02-01T09:17:08.690Z,600.00
2024-02-01T09:18:08.837Z,603.00
2024-02-01T09:19:09.062Z,602.00
2024-02-01T09:20:08.723Z,605.00
2024-02-01T09:21:08.689Z,607.00
2024-02-01T09:22:08.669Z,605.00
2024-02-01T09:23:08.680Z,615.00
2024-02-01T09:24:08.739Z,620.00
2024-02-01T09:25:08.733Z,629.00
2024-02-01T09:26:08.804Z,640.00
2024-02-01T09:27:10.608Z,641.00
2024-02-01T09:28:08.827Z,646.00
2024-02-01T09:29:08.836Z,645.00
2024-02-01T09:30:08.885Z,643.00
2024-02-01T09:31:08.839Z,642.00
2024-02-01T09:32:08.844Z,642.00
2024-02-01T09:33:08.987Z,640.00
2024-02-01T09:34:08.940Z,642.00
2024-02-01T09:35:08.863Z,642.00
2024-02-01T09:36:08.885Z,642.00
2024-02-01T09:37:08.857Z,641.00
2024-02-01T09:38:08.854Z,640.00
2024-02-01T09:39:08.896Z,650.00
2024-02-01T09:40:08.872Z,662.00
2024-02-01T09:41:08.878Z,663.00
2024-02-01T09:42:08.886Z,663.00
2024-02-01T09:43:08.856Z,664.00
2024-02-01T09:44:08.880Z,672.00
2024-02-01T09:45:08.904Z,681.00
2024-02-01T09:46:08.879Z,675.00
2024-02-01T09:47:08.892Z,697.00
2024-02-01T09:48:09.025Z,722.00
2024-02-01T09:49:14.977Z,745.00
2024-02-01T09:50:09.922Z,746.00
2024-02-01T09:51:08.927Z,746.00
2024-02-01T09:52:08.877Z,751.00
2024-02-01T09:53:09.946Z,758.00
2024-02-01T09:54:08.904Z,757.00
2024-02-01T09:55:08.888Z,761.00
2024-02-01T09:56:08.879Z,773.00
2024-02-01T09:57:08.931Z,768.00
2024-02-01T09:58:08.889Z,774.00
2024-02-01T09:59:08.937Z,780.00
2024-02-01T10:00:08.995Z,780.00
2024-02-01T10:01:09.060Z,777.00
2024-02-01T10:02:09.086Z,779.00
2024-02-01T10:03:09.222Z,782.00
2024-02-01T10:04:09.293Z,789.00
2024-02-01T10:05:09.293Z,793.00
2024-02-01T10:06:09.514Z,796.00
2024-02-01T10:07:09.503Z,810.00
2024-02-01T10:08:09.500Z,818.00
2024-02-01T10:09:09.551Z,823.00
2024-02-01T10:10:09.595Z,850.00
2024-02-01T10:11:09.640Z,861.00
2024-02-01T10:12:09.773Z,855.00
2024-02-01T10:13:09.710Z,864.00
2024-02-01T10:14:09.739Z,871.00
2024-02-01T10:15:11.004Z,872.00
2024-02-01T10:16:09.833Z,882.00
2024-02-01T10:17:09.892Z,880.00
2024-02-01T10:18:10.044Z,874.00
2024-02-01T10:19:10.342Z,896.00
2024-02-01T10:20:10.019Z,887.00
2024-02-01T10:21:10.058Z,900.00
2024-02-01T10:22:10.326Z,899.00
2024-02-01T10:23:10.142Z,917.00
2024-02-01T10:24:10.285Z,926.00
2024-02-01T10:25:10.223Z,922.00
2024-02-01T10:26:10.308Z,940.00
2024-02-01T10:27:10.349Z,932.00
2024-02-01T10:28:10.384Z,929.00
2024-02-01T10:29:10.443Z,939.00
2024-02-01T10:30:10.533Z,933.00
2024-02-01T10:31:10.516Z,945.00
2024-02-01T10:32:10.533Z,942.00
2024-02-01T10:33:10.680Z,951.00
2024-02-01T10:34:10.779Z,943.00
2024-02-01T10:35:10.669Z,945.00
2024-02-01T10:36:11.236Z,940.00
2024-02-01T10:37:10.710Z,970.00
2024-02-01T10:38:10.765Z,957.00
2024-02-01T10:39:10.818Z,974.00
2024-02-01T10:40:10.838Z,985.00
2024-02-01T10:41:10.868Z,970.00
2024-02-01T10:42:10.952Z,985.00
2024-02-01T10:43:10.960Z,985.00
2024-02-01T10:44:10.938Z,988.00
2024-02-01T10:45:11.080Z,998.00
2024-02-01T10:46:10.993Z,1007.00
2024-02-01T10:47:10.985Z,1005.00
2024-02-01T10:48:11.116Z,1010.00
2024-02-01T10:49:11.183Z,1003.00
2024-02-01T10:50:11.055Z,1013.00
2024-02-01T10:51:11.292Z,987.00
2024-02-01T10:52:11.152Z,1038.00
2024-02-01T10:53:11.174Z,1050.00
2024-02-01T10:54:11.265Z,1026.00
2024-02-01T10:55:11.421Z,982.00
2024-02-01T10:56:11.285Z,936.00
2024-02-01T10:57:11.397Z,878.00
2024-02-01T10:58:11.341Z,845.00
2024-02-01T10:59:11.363Z,784.00
2024-02-01T11:00:11.445Z,741.00
2024-02-01T11:01:11.468Z,673.00
2024-02-01T11:02:11.434Z,637.00
2024-02-01T11:03:11.490Z,610.00
2024-02-01T11:04:11.581Z,600.00
2024-02-01T11:05:11.558Z,601.00
2024-02-01T11:06:11.696Z,603.00
2024-02-01T11:07:11.717Z,600.00
2024-02-01T11:08:11.681Z,603.00
2024-02-01T11:09:11.751Z,602.00
2024-02-01T11:10:11.712Z,605.00
2024-02-01T11:11:11.783Z,606.00
2024-02-01T11:12:11.864Z,609.00
2024-02-01T11:13:11.872Z,610.00
2024-02-01T11:14:11.927Z,613.00
2024-02-01T11:15:11.985Z,615.00
2024-02-01T11:16:12.055Z,618.00
2024-02-01T11:17:12.047Z,619.00
2024-02-01T11:18:12.331Z,620.00
2024-02-01T11:19:12.280Z,623.00
2024-02-01T11:20:12.299Z,627.00
2024-02-01T11:21:12.160Z,626.00
2024-02-01T11:22:12.199Z,627.00
2024-02-01T11:23:12.154Z,626.00
2024-02-01T11:24:12.320Z,628.00
2024-02-01T11:25:12.211Z,633.00
2024-02-01T11:26:12.181Z,631.00
2024-02-01T11:27:12.189Z,631.00
2024-02-01T11:28:12.187Z,635.00
2024-02-01T11:29:12.189Z,638.00
2024-02-01T11:30:12.223Z,639.00
2024-02-01T11:31:18.557Z,643.00
2024-02-01T11:32:13.396Z,643.00
2024-02-01T11:33:12.346Z,643.00
2024-02-01T11:34:12.417Z,644.00
2024-02-01T11:35:12.223Z,644.00
2024-02-01T11:36:12.283Z,648.00
2024-02-01T11:37:12.206Z,649.00
2024-02-01T11:38:12.249Z,648.00
2024-02-01T11:39:12.273Z,645.00
2024-02-01T11:40:12.266Z,651.00
2024-02-01T11:41:12.313Z,652.00
2024-02-01T11:42:20.585Z,651.00
2024-02-01T11:43:13.344Z,651.00
2024-02-01T11:44:12.394Z,652.00
2024-02-01T11:45:12.386Z,647.00
2024-02-01T11:46:12.379Z,649.00
2024-02-01T11:47:12.368Z,650.00
2024-02-01T11:48:12.481Z,650.00
2024-02-01T11:49:12.407Z,650.00
2024-02-01T11:50:12.513Z,649.00
2024-02-01T11:51:12.427Z,651.00
2024-02-01T11:52:12.388Z,659.00
2024-02-01T11:53:12.377Z,658.00
2024-02-01T11:54:12.428Z,659.00
2024-02-01T11:55:12.367Z,659.00
2024-02-01T11:56:12.373Z,662.00
2024-02-01T11:57:12.464Z,667.00
2024-02-01T11:58:12.375Z,664.00
2024-02-01T11:59:12.391Z,665.00
2024-02-01T12:00:12.471Z,664.00
2024-02-01T12:01:16.166Z,666.00
2024-02-01T12:02:12.416Z,667.00
2024-02-01T12:03:12.522Z,669.00
2024-02-01T12:04:12.457Z,671.00
2024-02-01T12:05:12.421Z,678.00
2024-02-01T12:06:12.459Z,688.00
2024-02-01T12:07:12.424Z,697.00
2024-02-01T12:08:12.402Z,699.00
2024-02-01T12:09:12.421Z,700.00
2024-02-01T12:10:12.429Z,703.00
2024-02-01T12:11:12.423Z,708.00
2024-02-01T12:12:12.454Z,712.00
2024-02-01T12:13:12.410Z,706.00
2024-02-01T12:14:12.643Z,712.00
2024-02-01T12:15:12.413Z,755.00
2024-02-01T12:16:12.424Z,792.00
2024-02-01T12:17:12.412Z,790.00
2024-02-01T12:18:12.502Z,799.00
2024-02-01T12:19:12.570Z,800.00
2024-02-01T12:20:12.473Z,809.00
2024-02-01T12:21:12.545Z,819.00
2024-02-01T12:22:12.433Z,803.00
2024-02-01T12:23:12.406Z,816.00
2024-02-01T12:24:12.474Z,811.00
2024-02-01T12:25:12.434Z,811.00
2024-02-01T12:26:12.447Z,812.00
2024-02-01T12:27:12.548Z,816.00
2024-02-01T12:28:12.531Z,831.00
2024-02-01T12:29:12.497Z,825.00
2024-02-01T12:30:12.847Z,831.00
2024-02-01T12:31:12.609Z,828.00